Sunday, November 19, 2017, 2:04 PM GMT
Back to Local

CWFQ, Frelighsburg

Location: , , Canada Lat: 45.05
Local Time: 2:04 PM GMT (14:04 GMT) Lon: -72.833
Time Zone: GMT Elev: 498 ft

Show me the last for .
Show Decoded

2017-11-19 13:00 METAR CWFQ 191300Z AUTO 16004KT 05/05 RMK AO1 8PAST HR 6018 SLP823 P0007
                 T00510048 50018 =
2017-11-19 12:00 METAR CWFQ 191200Z AUTO 14004KT 04/04 RMK AO1 3PAST HR 6023 SLP827 P0009
                 T00440041 50069 =
2017-11-19 11:00 METAR CWFQ 191100Z AUTO 15003KT 04/04 RMK AO1 4PAST HR 6030 SLP835 P0013
                 T00440040 50046 =
2017-11-19 10:00 METAR CWFQ 191000Z AUTO 14007KT 04/03 RMK AO1 1PAST HR 6042 SLP842 P0004
                 T00400034 50011 =
2017-11-19 09:00 METAR CWFQ 190900Z AUTO 14004KT 04/03 RMK AO1 SLP851 T00380029 58046 =
2017-11-19 08:00 METAR CWFQ 190800Z AUTO 15009KT 04/03 RMK AO1 SLP866 T00370027 58038 =
2017-11-19 07:00 METAR CWFQ 190700Z AUTO 15006KT 03/02 RMK AO1 SLP885 T00250019 56046 =
2017-11-19 06:00 METAR CWFQ 190600Z AUTO 16002KT 02/02 RMK AO1 SOG 00 6048 SLP899 T00240015 50025
                 =
2017-11-19 05:00 METAR CWFQ 190500Z AUTO 14008KT 02/01 RMK AO1 4PAST HR PRESFR SOG 00 8053 SLP906
                 P0002 T00170009 50025 =
2017-11-19 04:00 METAR CWFQ 190400Z AUTO 15008KT 01/M00 RMK AO1 5PAST HR SOG 00 8041 SLP933 P0002
                 T00051004 50022 =
2017-11-19 03:00 METAR CWFQ 190300Z AUTO 14006KT 01/00 RMK AO1 7PAST HR SOG 00 7038 SLP949 P0007
                 T00100000 50017 =
2017-11-19 02:00 METAR CWFQ 190200Z AUTO 14007KT 02/M03 RMK AO1 SOG 01 8033 SLP961 T00191030 =
2017-11-19 01:00 METAR CWFQ 190100Z AUTO 14007KT 02/M04 RMK AO1 SOG 01 8025 SLP976 T00171040 =
2017-11-19 00:00 METAR CWFQ 190000Z AUTO 14006KT 02/M06 RMK AO1 SOG 01 8016 SLP989 T00171056 =
2017-11-18 23:00 METAR CWFQ 182300Z AUTO 15005KT 01/M06 RMK AO1 SOG 01 8010 SLP997 T00051062 =
2017-11-18 22:00 METAR CWFQ 182200Z AUTO 15004KT 01/M08 RMK AO1 SOG 01 6019 SLP003 T00051076 =
2017-11-18 21:00 METAR CWFQ 182100Z AUTO 15008KT 02/M08 RMK AO1 SOG 01 6039 SLP006 T00191076 =
2017-11-18 20:00 METAR CWFQ 182000Z AUTO 15007KT 02/M08 RMK AO1 SOG 01 8044 SLP007 T00211084 =
2017-11-18 19:00 METAR CWFQ 181900Z AUTO 14006KT 02/M09 RMK AO1 PRESFR SOG 01 8038 SLP023
                 T00221093 =
2017-11-18 18:00 METAR CWFQ 181800Z AUTO 14003KT 02/M10 RMK AO1 SOG 01 6033 SLP046 T00181095 =
2017-11-18 17:00 METAR CWFQ 181700Z AUTO 16002KT 02/M11 RMK AO1 SOG 01 6039 SLP053 T00161109 =
2017-11-18 16:00 METAR CWFQ 181600Z AUTO 14006KT M00/M11 RMK AO1 SOG 01 8046 SLP062 T10021108 =
2017-11-18 15:00 METAR CWFQ 181500Z AUTO 13006KT M00/M11 RMK AO1 SOG 01 8039 SLP081 T10031106 =

Support USWX by starting your Amazon purchase here.